sensor_id;sensor_type;location;lat;lon;timestamp;temperature;humidity
6641;DHT22;3356;49.360;8.266;2022-07-06T00:01:20;19.70;78.80
6641;DHT22;3356;49.360;8.266;2022-07-06T00:03:21;19.60;78.80
6641;DHT22;3356;49.360;8.266;2022-07-06T00:05:22;19.60;79.50
6641;DHT22;3356;49.360;8.266;2022-07-06T00:07:24;19.60;79.60
6641;DHT22;3356;49.360;8.266;2022-07-06T00:09:25;19.50;79.60
6641;DHT22;3356;49.360;8.266;2022-07-06T00:11:26;19.50;79.80
6641;DHT22;3356;49.360;8.266;2022-07-06T00:13:27;19.50;80.20
6641;DHT22;3356;49.360;8.266;2022-07-06T00:15:29;19.40;80.00
6641;DHT22;3356;49.360;8.266;2022-07-06T00:17:30;19.40;80.20
6641;DHT22;3356;49.360;8.266;2022-07-06T00:19:31;19.40;80.40
6641;DHT22;3356;49.360;8.266;2022-07-06T00:21:32;19.40;80.60
6641;DHT22;3356;49.360;8.266;2022-07-06T00:23:33;19.40;80.80
6641;DHT22;3356;49.360;8.266;2022-07-06T00:25:35;19.30;81.00
6641;DHT22;3356;49.360;8.266;2022-07-06T00:27:36;19.40;81.00
6641;DHT22;3356;49.360;8.266;2022-07-06T00:29:37;19.30;81.00
6641;DHT22;3356;49.360;8.266;2022-07-06T00:31:38;19.30;81.40
6641;DHT22;3356;49.360;8.266;2022-07-06T00:33:39;19.30;81.30
6641;DHT22;3356;49.360;8.266;2022-07-06T00:35:41;19.30;81.40
6641;DHT22;3356;49.360;8.266;2022-07-06T00:37:42;19.20;81.70
6641;DHT22;3356;49.360;8.266;2022-07-06T00:39:43;19.20;82.00
6641;DHT22;3356;49.360;8.266;2022-07-06T00:41:44;19.20;82.20
6641;DHT22;3356;49.360;8.266;2022-07-06T00:43:53;19.10;82.20
6641;DHT22;3356;49.360;8.266;2022-07-06T00:45:57;19.20;82.60
6641;DHT22;3356;49.360;8.266;2022-07-06T00:47:58;19.10;82.80
6641;DHT22;3356;49.360;8.266;2022-07-06T00:50:00;19.10;82.80
6641;DHT22;3356;49.360;8.266;2022-07-06T00:52:19;19.00;83.00
6641;DHT22;3356;49.360;8.266;2022-07-06T00:54:20;19.00;83.00
6641;DHT22;3356;49.360;8.266;2022-07-06T00:56:22;19.00;83.30
6641;DHT22;3356;49.360;8.266;2022-07-06T00:58:23;19.00;83.70
6641;DHT22;3356;49.360;8.266;2022-07-06T01:00:27;19.00;83.90
6641;DHT22;3356;49.360;8.266;2022-07-06T01:02:31;18.90;84.00
6641;DHT22;3356;49.360;8.266;2022-07-06T01:04:32;18.90;84.40
6641;DHT22;3356;49.360;8.266;2022-07-06T01:06:34;18.80;84.50
6641;DHT22;3356;49.360;8.266;2022-07-06T01:08:35;18.80;84.70
6641;DHT22;3356;49.360;8.266;2022-07-06T01:10:36;18.80;85.60
6641;DHT22;3356;49.360;8.266;2022-07-06T01:12:41;18.80;85.00
6641;DHT22;3356;49.360;8.266;2022-07-06T01:14:45;18.80;85.20
6641;DHT22;3356;49.360;8.266;2022-07-06T01:16:47;18.70;84.90
6641;DHT22;3356;49.360;8.266;2022-07-06T01:18:48;18.70;85.30
6641;DHT22;3356;49.360;8.266;2022-07-06T01:20:50;18.60;85.40
6641;DHT22;3356;49.360;8.266;2022-07-06T01:22:52;18.60;85.50
6641;DHT22;3356;49.360;8.266;2022-07-06T01:24:54;18.60;86.00
6641;DHT22;3356;49.360;8.266;2022-07-06T01:26:55;18.60;85.60
6641;DHT22;3356;49.360;8.266;2022-07-06T01:28:57;18.50;85.50
6641;DHT22;3356;49.360;8.266;2022-07-06T01:30:58;18.50;85.60
6641;DHT22;3356;49.360;8.266;2022-07-06T01:32:59;18.50;85.60
6641;DHT22;3356;49.360;8.266;2022-07-06T01:35:00;18.50;85.90
6641;DHT22;3356;49.360;8.266;2022-07-06T01:37:02;18.50;85.60
6641;DHT22;3356;49.360;8.266;2022-07-06T01:39:03;18.50;86.00
6641;DHT22;3356;49.360;8.266;2022-07-06T01:41:07;18.50;85.90
6641;DHT22;3356;49.360;8.266;2022-07-06T01:43:08;18.40;86.30
6641;DHT22;3356;49.360;8.266;2022-07-06T01:45:10;18.40;86.40
6641;DHT22;3356;49.360;8.266;2022-07-06T01:47:12;18.30;86.50
6641;DHT22;3356;49.360;8.266;2022-07-06T01:49:14;18.30;86.90
6641;DHT22;3356;49.360;8.266;2022-07-06T01:51:15;18.30;86.70
6641;DHT22;3356;49.360;8.266;2022-07-06T01:53:18;18.30;86.90
6641;DHT22;3356;49.360;8.266;2022-07-06T01:55:19;18.20;86.90
6641;DHT22;3356;49.360;8.266;2022-07-06T01:57:20;18.20;87.10
6641;DHT22;3356;49.360;8.266;2022-07-06T01:59:22;18.20;87.50
6641;DHT22;3356;49.360;8.266;2022-07-06T02:01:25;18.20;87.60
6641;DHT22;3356;49.360;8.266;2022-07-06T02:03:26;18.20;87.50
6641;DHT22;3356;49.360;8.266;2022-07-06T02:05:27;18.10;88.10
6641;DHT22;3356;49.360;8.266;2022-07-06T02:07:29;18.10;88.10
6641;DHT22;3356;49.360;8.266;2022-07-06T02:09:30;18.00;88.40
6641;DHT22;3356;49.360;8.266;2022-07-06T02:11:31;18.00;88.30
6641;DHT22;3356;49.360;8.266;2022-07-06T02:13:33;17.90;88.30
6641;DHT22;3356;49.360;8.266;2022-07-06T02:15:35;17.90;88.40
6641;DHT22;3356;49.360;8.266;2022-07-06T02:17:37;17.90;88.90
6641;DHT22;3356;49.360;8.266;2022-07-06T02:19:38;17.90;89.10
6641;DHT22;3356;49.360;8.266;2022-07-06T02:21:39;17.90;89.60
6641;DHT22;3356;49.360;8.266;2022-07-06T02:23:40;17.80;89.10
6641;DHT22;3356;49.360;8.266;2022-07-06T02:25:43;17.80;88.90
6641;DHT22;3356;49.360;8.266;2022-07-06T02:27:44;17.70;88.90
6641;DHT22;3356;49.360;8.266;2022-07-06T02:29:47;17.70;89.00
6641;DHT22;3356;49.360;8.266;2022-07-06T02:31:48;17.70;89.50
6641;DHT22;3356;49.360;8.266;2022-07-06T02:33:49;17.70;89.50
6641;DHT22;3356;49.360;8.266;2022-07-06T02:35:50;17.70;89.30
6641;DHT22;3356;49.360;8.266;2022-07-06T02:37:52;17.70;89.90
6641;DHT22;3356;49.360;8.266;2022-07-06T02:39:53;17.60;89.60
6641;DHT22;3356;49.360;8.266;2022-07-06T02:41:54;17.60;89.80
6641;DHT22;3356;49.360;8.266;2022-07-06T02:43:56;17.60;89.40
6641;DHT22;3356;49.360;8.266;2022-07-06T02:45:57;17.50;90.10
6641;DHT22;3356;49.360;8.266;2022-07-06T02:48:00;17.50;89.90
6641;DHT22;3356;49.360;8.266;2022-07-06T02:50:02;17.50;90.00
6641;DHT22;3356;49.360;8.266;2022-07-06T02:52:04;17.50;90.00
6641;DHT22;3356;49.360;8.266;2022-07-06T02:54:06;17.40;89.80
6641;DHT22;3356;49.360;8.266;2022-07-06T02:56:08;17.40;89.70
6641;DHT22;3356;49.360;8.266;2022-07-06T02:58:09;17.30;90.00
6641;DHT22;3356;49.360;8.266;2022-07-06T03:00:12;17.30;90.50
6641;DHT22;3356;49.360;8.266;2022-07-06T03:02:14;17.30;90.30
6641;DHT22;3356;49.360;8.266;2022-07-06T03:04:16;17.30;90.50
6641;DHT22;3356;49.360;8.266;2022-07-06T03:06:17;17.30;90.50
6641;DHT22;3356;49.360;8.266;2022-07-06T03:08:18;17.30;90.70
6641;DHT22;3356;49.360;8.266;2022-07-06T03:10:19;17.20;90.60
6641;DHT22;3356;49.360;8.266;2022-07-06T03:12:20;17.20;90.60
6641;DHT22;3356;49.360;8.266;2022-07-06T03:14:22;17.20;90.60
6641;DHT22;3356;49.360;8.266;2022-07-06T03:16:24;17.20;90.60
6641;DHT22;3356;49.360;8.266;2022-07-06T03:18:26;17.20;90.90
6641;DHT22;3356;49.360;8.266;2022-07-06T03:20:27;17.20;90.50
6641;DHT22;3356;49.360;8.266;2022-07-06T03:22:29;17.20;90.60
6641;DHT22;3356;49.360;8.266;2022-07-06T03:24:31;17.20;90.60
6641;DHT22;3356;49.360;8.266;2022-07-06T03:26:32;17.20;90.70
6641;DHT22;3356;49.360;8.266;2022-07-06T03:28:33;17.10;90.80
6641;DHT22;3356;49.360;8.266;2022-07-06T03:30:35;17.10;90.90
6641;DHT22;3356;49.360;8.266;2022-07-06T03:32:36;17.10;90.80
6641;DHT22;3356;49.360;8.266;2022-07-06T03:34:40;17.10;90.70
6641;DHT22;3356;49.360;8.266;2022-07-06T03:36:42;17.10;90.90
6641;DHT22;3356;49.360;8.266;2022-07-06T03:38:43;17.10;91.00
6641;DHT22;3356;49.360;8.266;2022-07-06T03:40:44;17.10;91.00
6641;DHT22;3356;49.360;8.266;2022-07-06T03:42:46;17.10;90.90
6641;DHT22;3356;49.360;8.266;2022-07-06T03:44:48;17.10;90.90
6641;DHT22;3356;49.360;8.266;2022-07-06T03:46:49;17.10;90.70
6641;DHT22;3356;49.360;8.266;2022-07-06T03:48:52;17.20;90.80
6641;DHT22;3356;49.360;8.266;2022-07-06T03:50:54;17.20;90.60
6641;DHT22;3356;49.360;8.266;2022-07-06T03:52:56;17.30;90.70
6641;DHT22;3356;49.360;8.266;2022-07-06T03:54:57;17.30;90.60
6641;DHT22;3356;49.360;8.266;2022-07-06T03:57:02;17.30;90.70
6641;DHT22;3356;49.360;8.266;2022-07-06T03:59:04;17.30;90.70
6641;DHT22;3356;49.360;8.266;2022-07-06T04:01:09;17.30;90.70
6641;DHT22;3356;49.360;8.266;2022-07-06T04:03:10;17.30;90.70
6641;DHT22;3356;49.360;8.266;2022-07-06T04:05:20;17.30;90.70
6641;DHT22;3356;49.360;8.266;2022-07-06T04:07:22;17.30;90.80
6641;DHT22;3356;49.360;8.266;2022-07-06T04:09:23;17.20;90.70
6641;DHT22;3356;49.360;8.266;2022-07-06T04:11:26;17.30;90.70
6641;DHT22;3356;49.360;8.266;2022-07-06T04:13:27;17.30;90.80
6641;DHT22;3356;49.360;8.266;2022-07-06T04:15:29;17.30;90.50
6641;DHT22;3356;49.360;8.266;2022-07-06T04:17:30;17.40;90.50
6641;DHT22;3356;49.360;8.266;2022-07-06T04:19:50;17.40;90.50
6641;DHT22;3356;49.360;8.266;2022-07-06T04:21:52;17.50;90.50
6641;DHT22;3356;49.360;8.266;2022-07-06T04:23:54;17.40;90.30
6641;DHT22;3356;49.360;8.266;2022-07-06T04:25:55;17.40;90.40
6641;DHT22;3356;49.360;8.266;2022-07-06T04:27:58;17.40;90.40
6641;DHT22;3356;49.360;8.266;2022-07-06T04:30:01;17.50;90.20
6641;DHT22;3356;49.360;8.266;2022-07-06T04:32:03;17.60;90.10
6641;DHT22;3356;49.360;8.266;2022-07-06T04:34:04;17.70;89.80
6641;DHT22;3356;49.360;8.266;2022-07-06T04:36:06;17.50;90.00
6641;DHT22;3356;49.360;8.266;2022-07-06T04:38:15;17.50;90.10
6641;DHT22;3356;49.360;8.266;2022-07-06T04:40:17;17.60;90.00
6641;DHT22;3356;49.360;8.266;2022-07-06T04:42:18;17.60;90.00
6641;DHT22;3356;49.360;8.266;2022-07-06T04:44:19;17.70;90.20
6641;DHT22;3356;49.360;8.266;2022-07-06T04:46:21;17.70;90.10
6641;DHT22;3356;49.360;8.266;2022-07-06T04:48:25;17.70;89.80
6641;DHT22;3356;49.360;8.266;2022-07-06T04:50:26;17.70;89.60
6641;DHT22;3356;49.360;8.266;2022-07-06T04:52:31;17.70;89.30
6641;DHT22;3356;49.360;8.266;2022-07-06T04:54:33;17.60;89.10
6641;DHT22;3356;49.360;8.266;2022-07-06T04:56:34;17.60;89.30
6641;DHT22;3356;49.360;8.266;2022-07-06T04:58:35;17.70;88.70
6641;DHT22;3356;49.360;8.266;2022-07-06T05:00:37;17.70;89.30
6641;DHT22;3356;49.360;8.266;2022-07-06T05:02:39;17.70;88.90
6641;DHT22;3356;49.360;8.266;2022-07-06T05:04:40;17.80;88.90
6641;DHT22;3356;49.360;8.266;2022-07-06T05:06:41;17.80;88.90
6641;DHT22;3356;49.360;8.266;2022-07-06T05:08:43;17.70;88.80
6641;DHT22;3356;49.360;8.266;2022-07-06T05:10:44;17.80;88.90
6641;DHT22;3356;49.360;8.266;2022-07-06T05:12:45;17.90;88.30
6641;DHT22;3356;49.360;8.266;2022-07-06T05:14:47;18.00;87.60
6641;DHT22;3356;49.360;8.266;2022-07-06T05:16:49;18.00;87.90
6641;DHT22;3356;49.360;8.266;2022-07-06T05:18:51;18.20;86.40
6641;DHT22;3356;49.360;8.266;2022-07-06T05:20:53;18.30;86.40
6641;DHT22;3356;49.360;8.266;2022-07-06T05:22:55;18.30;85.40
6641;DHT22;3356;49.360;8.266;2022-07-06T05:25:02;18.30;84.80
6641;DHT22;3356;49.360;8.266;2022-07-06T05:27:04;18.60;84.70
6641;DHT22;3356;49.360;8.266;2022-07-06T05:29:05;18.90;83.90
6641;DHT22;3356;49.360;8.266;2022-07-06T05:31:07;18.90;83.60
6641;DHT22;3356;49.360;8.266;2022-07-06T05:33:09;18.80;83.00
6641;DHT22;3356;49.360;8.266;2022-07-06T05:35:10;18.90;83.00
6641;DHT22;3356;49.360;8.266;2022-07-06T05:37:11;19.30;82.10
6641;DHT22;3356;49.360;8.266;2022-07-06T05:39:13;19.20;81.30
6641;DHT22;3356;49.360;8.266;2022-07-06T05:41:14;19.30;81.50
6641;DHT22;3356;49.360;8.266;2022-07-06T05:43:17;19.90;80.20
6641;DHT22;3356;49.360;8.266;2022-07-06T05:45:18;20.10;79.30
6641;DHT22;3356;49.360;8.266;2022-07-06T05:47:20;20.00;79.10
6641;DHT22;3356;49.360;8.266;2022-07-06T05:49:40;20.40;78.30
6641;DHT22;3356;49.360;8.266;2022-07-06T05:52:00;20.60;77.00
6641;DHT22;3356;49.360;8.266;2022-07-06T05:54:02;20.60;77.40
6641;DHT22;3356;49.360;8.266;2022-07-06T05:56:03;20.90;76.70
6641;DHT22;3356;49.360;8.266;2022-07-06T05:58:06;20.90;76.20
6641;DHT22;3356;49.360;8.266;2022-07-06T06:00:09;21.00;76.30
6641;DHT22;3356;49.360;8.266;2022-07-06T06:02:17;21.50;75.40
6641;DHT22;3356;49.360;8.266;2022-07-06T06:04:19;22.20;73.60
6641;DHT22;3356;49.360;8.266;2022-07-06T06:06:20;22.50;72.60
6641;DHT22;3356;49.360;8.266;2022-07-06T06:08:21;23.00;71.60
6641;DHT22;3356;49.360;8.266;2022-07-06T06:10:24;23.10;69.80
6641;DHT22;3356;49.360;8.266;2022-07-06T06:12:28;23.60;69.70
6641;DHT22;3356;49.360;8.266;2022-07-06T06:14:30;24.80;66.90
6641;DHT22;3356;49.360;8.266;2022-07-06T06:16:31;24.80;66.30
6641;DHT22;3356;49.360;8.266;2022-07-06T06:18:32;24.50;66.80
6641;DHT22;3356;49.360;8.266;2022-07-06T06:20:33;25.40;64.90
6641;DHT22;3356;49.360;8.266;2022-07-06T06:22:51;25.80;64.00
6641;DHT22;3356;49.360;8.266;2022-07-06T06:24:52;25.70;63.90
6641;DHT22;3356;49.360;8.266;2022-07-06T06:26:53;26.80;63.20
6641;DHT22;3356;49.360;8.266;2022-07-06T06:28:55;27.30;61.20
6641;DHT22;3356;49.360;8.266;2022-07-06T06:30:56;26.00;61.40
6641;DHT22;3356;49.360;8.266;2022-07-06T06:33:17;25.30;63.40
6641;DHT22;3356;49.360;8.266;2022-07-06T06:35:19;25.60;63.70
6641;DHT22;3356;49.360;8.266;2022-07-06T06:37:20;26.30;62.40
6641;DHT22;3356;49.360;8.266;2022-07-06T06:39:21;26.50;60.80
6641;DHT22;3356;49.360;8.266;2022-07-06T06:41:22;27.20;62.00
6641;DHT22;3356;49.360;8.266;2022-07-06T06:43:23;27.00;60.10
6641;DHT22;3356;49.360;8.266;2022-07-06T06:45:44;27.10;59.60
6641;DHT22;3356;49.360;8.266;2022-07-06T06:47:47;27.40;58.60
6641;DHT22;3356;49.360;8.266;2022-07-06T06:49:48;27.70;59.60
6641;DHT22;3356;49.360;8.266;2022-07-06T06:51:49;28.20;58.70
6641;DHT22;3356;49.360;8.266;2022-07-06T06:53:50;29.60;55.10
6641;DHT22;3356;49.360;8.266;2022-07-06T06:55:52;30.50;54.10
6641;DHT22;3356;49.360;8.266;2022-07-06T06:57:53;31.30;52.00
6641;DHT22;3356;49.360;8.266;2022-07-06T06:59:54;31.80;51.30
6641;DHT22;3356;49.360;8.266;2022-07-06T07:01:55;32.30;50.70
6641;DHT22;3356;49.360;8.266;2022-07-06T07:03:57;32.00;50.20
6641;DHT22;3356;49.360;8.266;2022-07-06T07:05:58;32.60;50.20
6641;DHT22;3356;49.360;8.266;2022-07-06T07:07:59;33.20;49.10
6641;DHT22;3356;49.360;8.266;2022-07-06T07:10:00;33.30;48.60
6641;DHT22;3356;49.360;8.266;2022-07-06T07:12:02;33.60;47.80
6641;DHT22;3356;49.360;8.266;2022-07-06T07:14:03;34.20;48.00
6641;DHT22;3356;49.360;8.266;2022-07-06T07:16:05;34.30;47.40
6641;DHT22;3356;49.360;8.266;2022-07-06T07:18:06;35.00;45.90
6641;DHT22;3356;49.360;8.266;2022-07-06T07:20:08;34.20;45.40
6641;DHT22;3356;49.360;8.266;2022-07-06T07:22:11;34.90;45.50
6641;DHT22;3356;49.360;8.266;2022-07-06T07:24:12;35.70;45.20
6641;DHT22;3356;49.360;8.266;2022-07-06T07:26:13;36.00;43.80
6641;DHT22;3356;49.360;8.266;2022-07-06T07:28:14;35.80;42.90
6641;DHT22;3356;49.360;8.266;2022-07-06T07:30:16;36.40;42.80
6641;DHT22;3356;49.360;8.266;2022-07-06T07:32:17;36.80;42.50
6641;DHT22;3356;49.360;8.266;2022-07-06T07:34:18;37.10;41.30
6641;DHT22;3356;49.360;8.266;2022-07-06T07:36:19;37.20;41.80
6641;DHT22;3356;49.360;8.266;2022-07-06T07:38:20;37.60;40.90
6641;DHT22;3356;49.360;8.266;2022-07-06T07:40:21;37.70;41.40
6641;DHT22;3356;49.360;8.266;2022-07-06T07:42:23;38.70;40.50
6641;DHT22;3356;49.360;8.266;2022-07-06T07:44:24;38.20;40.80
6641;DHT22;3356;49.360;8.266;2022-07-06T07:46:26;37.80;40.50
6641;DHT22;3356;49.360;8.266;2022-07-06T07:48:27;38.00;40.80
6641;DHT22;3356;49.360;8.266;2022-07-06T07:50:28;38.30;39.50
6641;DHT22;3356;49.360;8.266;2022-07-06T07:52:30;39.00;39.20
6641;DHT22;3356;49.360;8.266;2022-07-06T07:54:31;38.90;38.10
6641;DHT22;3356;49.360;8.266;2022-07-06T07:56:32;38.30;39.10
6641;DHT22;3356;49.360;8.266;2022-07-06T07:58:33;38.40;39.90
6641;DHT22;3356;49.360;8.266;2022-07-06T08:00:35;38.60;39.90
6641;DHT22;3356;49.360;8.266;2022-07-06T08:02:36;39.30;38.70
6641;DHT22;3356;49.360;8.266;2022-07-06T08:04:37;40.30;37.10
6641;DHT22;3356;49.360;8.266;2022-07-06T08:06:38;40.50;37.40
6641;DHT22;3356;49.360;8.266;2022-07-06T08:08:39;40.90;37.30
6641;DHT22;3356;49.360;8.266;2022-07-06T08:10:40;41.10;36.70
6641;DHT22;3356;49.360;8.266;2022-07-06T08:12:41;41.20;36.90
6641;DHT22;3356;49.360;8.266;2022-07-06T08:14:42;41.40;37.20
6641;DHT22;3356;49.360;8.266;2022-07-06T08:16:43;40.80;36.00
6641;DHT22;3356;49.360;8.266;2022-07-06T08:18:45;41.10;36.80
6641;DHT22;3356;49.360;8.266;2022-07-06T08:20:46;41.40;36.20
6641;DHT22;3356;49.360;8.266;2022-07-06T08:22:47;41.70;36.30
6641;DHT22;3356;49.360;8.266;2022-07-06T08:24:48;41.40;36.30
6641;DHT22;3356;49.360;8.266;2022-07-06T08:26:49;40.80;35.60
6641;DHT22;3356;49.360;8.266;2022-07-06T08:28:51;40.70;35.90
6641;DHT22;3356;49.360;8.266;2022-07-06T08:30:52;40.50;36.00
6641;DHT22;3356;49.360;8.266;2022-07-06T08:32:55;40.30;36.20
6641;DHT22;3356;49.360;8.266;2022-07-06T08:34:56;40.90;36.80
6641;DHT22;3356;49.360;8.266;2022-07-06T08:36:57;40.40;35.90
6641;DHT22;3356;49.360;8.266;2022-07-06T08:38:58;39.10;37.40
6641;DHT22;3356;49.360;8.266;2022-07-06T08:41:00;39.30;37.70
6641;DHT22;3356;49.360;8.266;2022-07-06T08:43:01;40.00;37.30
6641;DHT22;3356;49.360;8.266;2022-07-06T08:45:04;40.60;35.80
6641;DHT22;3356;49.360;8.266;2022-07-06T08:47:06;39.70;37.90
6641;DHT22;3356;49.360;8.266;2022-07-06T08:49:16;40.20;35.70
6641;DHT22;3356;49.360;8.266;2022-07-06T08:51:18;41.70;35.40
6641;DHT22;3356;49.360;8.266;2022-07-06T08:53:21;41.50;35.00
6641;DHT22;3356;49.360;8.266;2022-07-06T08:55:24;40.30;36.60
6641;DHT22;3356;49.360;8.266;2022-07-06T08:57:26;41.70;35.70
6641;DHT22;3356;49.360;8.266;2022-07-06T08:59:28;41.60;34.40
6641;DHT22;3356;49.360;8.266;2022-07-06T09:01:30;41.40;35.20
6641;DHT22;3356;49.360;8.266;2022-07-06T09:03:31;41.00;35.60
6641;DHT22;3356;49.360;8.266;2022-07-06T09:05:33;40.90;35.50
6641;DHT22;3356;49.360;8.266;2022-07-06T09:07:35;40.50;36.10
6641;DHT22;3356;49.360;8.266;2022-07-06T09:09:37;40.50;37.00
6641;DHT22;3356;49.360;8.266;2022-07-06T09:11:39;41.70;35.10
6641;DHT22;3356;49.360;8.266;2022-07-06T09:13:40;42.40;35.40
6641;DHT22;3356;49.360;8.266;2022-07-06T09:15:41;42.80;34.10
6641;DHT22;3356;49.360;8.266;2022-07-06T09:17:43;43.20;33.20
6641;DHT22;3356;49.360;8.266;2022-07-06T09:19:45;43.00;34.10
6641;DHT22;3356;49.360;8.266;2022-07-06T09:21:46;43.00;33.50
6641;DHT22;3356;49.360;8.266;2022-07-06T09:23:53;41.90;33.90
6641;DHT22;3356;49.360;8.266;2022-07-06T09:25:55;42.10;35.00
6641;DHT22;3356;49.360;8.266;2022-07-06T09:27:57;40.80;35.20
6641;DHT22;3356;49.360;8.266;2022-07-06T09:30:00;39.70;37.00
6641;DHT22;3356;49.360;8.266;2022-07-06T09:32:03;39.10;37.90
6641;DHT22;3356;49.360;8.266;2022-07-06T09:34:07;38.50;38.90
6641;DHT22;3356;49.360;8.266;2022-07-06T09:36:11;38.60;39.50
6641;DHT22;3356;49.360;8.266;2022-07-06T09:38:14;38.40;39.50
6641;DHT22;3356;49.360;8.266;2022-07-06T09:40:18;37.70;39.00
6641;DHT22;3356;49.360;8.266;2022-07-06T09:42:24;37.40;39.80
6641;DHT22;3356;49.360;8.266;2022-07-06T09:44:31;37.80;40.00
6641;DHT22;3356;49.360;8.266;2022-07-06T09:46:42;37.70;40.00
6641;DHT22;3356;49.360;8.266;2022-07-06T09:48:45;37.10;40.00
6641;DHT22;3356;49.360;8.266;2022-07-06T09:50:47;36.80;40.30
6641;DHT22;3356;49.360;8.266;2022-07-06T09:52:55;36.20;42.00
6641;DHT22;3356;49.360;8.266;2022-07-06T09:54:56;36.60;42.00
6641;DHT22;3356;49.360;8.266;2022-07-06T09:56:58;37.00;40.80
6641;DHT22;3356;49.360;8.266;2022-07-06T09:58:59;36.80;41.20
6641;DHT22;3356;49.360;8.266;2022-07-06T10:01:00;36.40;40.60
6641;DHT22;3356;49.360;8.266;2022-07-06T10:03:02;36.10;42.00
6641;DHT22;3356;49.360;8.266;2022-07-06T10:05:04;36.30;42.50
6641;DHT22;3356;49.360;8.266;2022-07-06T10:07:06;35.90;42.90
6641;DHT22;3356;49.360;8.266;2022-07-06T10:09:10;36.40;42.90
6641;DHT22;3356;49.360;8.266;2022-07-06T10:11:12;36.70;42.80
6641;DHT22;3356;49.360;8.266;2022-07-06T10:13:19;36.30;41.50
6641;DHT22;3356;49.360;8.266;2022-07-06T10:15:26;36.40;42.40
6641;DHT22;3356;49.360;8.266;2022-07-06T10:17:28;35.90;41.40
6641;DHT22;3356;49.360;8.266;2022-07-06T10:19:30;35.40;42.40
6641;DHT22;3356;49.360;8.266;2022-07-06T10:21:32;34.50;43.80
6641;DHT22;3356;49.360;8.266;2022-07-06T10:23:34;34.50;44.90
6641;DHT22;3356;49.360;8.266;2022-07-06T10:25:36;35.20;43.50
6641;DHT22;3356;49.360;8.266;2022-07-06T10:27:38;35.90;43.00
6641;DHT22;3356;49.360;8.266;2022-07-06T10:29:40;36.00;42.50
6641;DHT22;3356;49.360;8.266;2022-07-06T10:31:45;35.70;43.60
6641;DHT22;3356;49.360;8.266;2022-07-06T10:33:46;35.60;43.10
6641;DHT22;3356;49.360;8.266;2022-07-06T10:35:49;35.10;43.50
6641;DHT22;3356;49.360;8.266;2022-07-06T10:38:10;34.90;44.60
6641;DHT22;3356;49.360;8.266;2022-07-06T10:40:13;35.00;44.10
6641;DHT22;3356;49.360;8.266;2022-07-06T10:44:44;35.50;42.70
6641;DHT22;3356;49.360;8.266;2022-07-06T10:46:54;35.20;44.00
6641;DHT22;3356;49.360;8.266;2022-07-06T10:48:56;34.90;43.70
6641;DHT22;3356;49.360;8.266;2022-07-06T10:50:58;34.60;43.10
6641;DHT22;3356;49.360;8.266;2022-07-06T10:53:02;34.40;43.00
6641;DHT22;3356;49.360;8.266;2022-07-06T10:55:03;34.50;44.30
6641;DHT22;3356;49.360;8.266;2022-07-06T10:57:09;34.60;42.80
6641;DHT22;3356;49.360;8.266;2022-07-06T10:59:15;34.00;43.60
6641;DHT22;3356;49.360;8.266;2022-07-06T11:01:18;34.60;45.50
6641;DHT22;3356;49.360;8.266;2022-07-06T11:05:40;34.40;43.90
6641;DHT22;3356;49.360;8.266;2022-07-06T11:07:50;34.20;44.40
6641;DHT22;3356;49.360;8.266;2022-07-06T11:09:59;34.30;42.90
6641;DHT22;3356;49.360;8.266;2022-07-06T11:12:12;33.90;45.10
6641;DHT22;3356;49.360;8.266;2022-07-06T11:14:16;33.70;44.30
6641;DHT22;3356;49.360;8.266;2022-07-06T11:16:21;33.60;44.90
6641;DHT22;3356;49.360;8.266;2022-07-06T11:18:23;33.20;42.00
6641;DHT22;3356;49.360;8.266;2022-07-06T11:20:24;33.20;43.10
6641;DHT22;3356;49.360;8.266;2022-07-06T11:22:27;33.10;44.40
6641;DHT22;3356;49.360;8.266;2022-07-06T11:24:32;32.90;43.20
6641;DHT22;3356;49.360;8.266;2022-07-06T11:26:35;32.60;45.30
6641;DHT22;3356;49.360;8.266;2022-07-06T11:28:37;32.30;45.20
6641;DHT22;3356;49.360;8.266;2022-07-06T11:30:39;32.60;44.80
6641;DHT22;3356;49.360;8.266;2022-07-06T11:32:40;32.70;43.90
6641;DHT22;3356;49.360;8.266;2022-07-06T11:34:43;32.80;44.70
6641;DHT22;3356;49.360;8.266;2022-07-06T11:36:45;32.70;44.40
6641;DHT22;3356;49.360;8.266;2022-07-06T11:38:47;32.20;44.10
6641;DHT22;3356;49.360;8.266;2022-07-06T11:40:53;32.30;44.70
6641;DHT22;3356;49.360;8.266;2022-07-06T11:42:54;32.00;44.40
6641;DHT22;3356;49.360;8.266;2022-07-06T11:44:56;32.10;45.30
6641;DHT22;3356;49.360;8.266;2022-07-06T11:46:57;32.10;43.70
6641;DHT22;3356;49.360;8.266;2022-07-06T11:49:05;31.90;43.60
6641;DHT22;3356;49.360;8.266;2022-07-06T11:51:07;30.90;43.30
6641;DHT22;3356;49.360;8.266;2022-07-06T11:53:08;30.60;44.30
6641;DHT22;3356;49.360;8.266;2022-07-06T11:55:09;30.80;45.50
6641;DHT22;3356;49.360;8.266;2022-07-06T11:57:11;30.70;44.90
6641;DHT22;3356;49.360;8.266;2022-07-06T11:59:14;30.70;45.20
6641;DHT22;3356;49.360;8.266;2022-07-06T12:01:16;30.90;44.60
6641;DHT22;3356;49.360;8.266;2022-07-06T12:03:17;30.90;44.30
6641;DHT22;3356;49.360;8.266;2022-07-06T12:05:31;30.70;44.40
6641;DHT22;3356;49.360;8.266;2022-07-06T12:07:32;30.60;43.80
6641;DHT22;3356;49.360;8.266;2022-07-06T12:09:36;29.80;44.70
6641;DHT22;3356;49.360;8.266;2022-07-06T12:11:37;29.80;42.70
6641;DHT22;3356;49.360;8.266;2022-07-06T12:13:40;29.80;43.80
6641;DHT22;3356;49.360;8.266;2022-07-06T12:15:42;29.70;44.80
6641;DHT22;3356;49.360;8.266;2022-07-06T12:17:48;28.50;44.60
6641;DHT22;3356;49.360;8.266;2022-07-06T12:19:54;29.10;46.90
6641;DHT22;3356;49.360;8.266;2022-07-06T12:21:56;29.50;46.30
6641;DHT22;3356;49.360;8.266;2022-07-06T12:23:58;29.80;46.10
6641;DHT22;3356;49.360;8.266;2022-07-06T12:25:59;30.10;45.90
6641;DHT22;3356;49.360;8.266;2022-07-06T12:28:00;30.00;45.10
6641;DHT22;3356;49.360;8.266;2022-07-06T12:30:11;29.80;45.90
6641;DHT22;3356;49.360;8.266;2022-07-06T12:32:18;29.50;43.40
6641;DHT22;3356;49.360;8.266;2022-07-06T12:36:22;29.10;44.70
6641;DHT22;3356;49.360;8.266;2022-07-06T12:38:26;29.00;44.10
6641;DHT22;3356;49.360;8.266;2022-07-06T12:40:29;28.40;44.20
6641;DHT22;3356;49.360;8.266;2022-07-06T12:42:30;28.30;45.10
6641;DHT22;3356;49.360;8.266;2022-07-06T12:44:31;28.40;45.80
6641;DHT22;3356;49.360;8.266;2022-07-06T12:46:35;28.60;46.00
6641;DHT22;3356;49.360;8.266;2022-07-06T12:48:54;28.10;44.20
6641;DHT22;3356;49.360;8.266;2022-07-06T12:50:56;28.30;45.00
6641;DHT22;3356;49.360;8.266;2022-07-06T12:52:59;28.60;46.00
6641;DHT22;3356;49.360;8.266;2022-07-06T12:55:01;28.80;44.90
6641;DHT22;3356;49.360;8.266;2022-07-06T12:57:13;28.50;45.40
6641;DHT22;3356;49.360;8.266;2022-07-06T12:59:22;28.70;46.40
6641;DHT22;3356;49.360;8.266;2022-07-06T13:01:24;28.60;43.90
6641;DHT22;3356;49.360;8.266;2022-07-06T13:03:25;28.40;44.50
6641;DHT22;3356;49.360;8.266;2022-07-06T13:05:27;27.90;44.40
6641;DHT22;3356;49.360;8.266;2022-07-06T13:07:30;28.00;45.50
6641;DHT22;3356;49.360;8.266;2022-07-06T13:09:36;27.70;44.40
6641;DHT22;3356;49.360;8.266;2022-07-06T13:11:37;27.50;44.90
6641;DHT22;3356;49.360;8.266;2022-07-06T13:13:44;27.30;45.00
6641;DHT22;3356;49.360;8.266;2022-07-06T13:15:46;27.60;45.90
6641;DHT22;3356;49.360;8.266;2022-07-06T13:17:47;27.70;46.50
6641;DHT22;3356;49.360;8.266;2022-07-06T13:19:48;28.00;47.70
6641;DHT22;3356;49.360;8.266;2022-07-06T13:21:49;27.70;46.40
6641;DHT22;3356;49.360;8.266;2022-07-06T13:23:51;27.70;45.40
6641;DHT22;3356;49.360;8.266;2022-07-06T13:25:52;27.70;48.00
6641;DHT22;3356;49.360;8.266;2022-07-06T13:27:53;27.90;47.20